Time;durP1;ratioP1;P1;durP2;ratioP2;P2;SDS_P1;SDS_P2;PMS_P1;PMS_P2;Temp;Humidity;BMP_temperature;BMP_pressure;BME280_temperature;BME280_humidity;BME280_pressure;Samples;Min_cycle;Max_cycle;Signal;HPM_P1;HPM_P2
2021/09/19 00:00:53;;;;;;;0.10;0.10;;;;;;;;;;5060172;28;20160;-91
2021/09/19 00:03:19;;;;;;;0.10;0.10;;;;;;;;;;5093361;28;20522;-91
2021/09/19 00:05:45;;;;;;;0.10;0.10;;;;;;;;;;5076030;28;20218;-90
2021/09/19 00:08:11;;;;;;;0.10;0.10;;;;;;;;;;5059401;28;20040;-90
2021/09/19 00:10:37;;;;;;;0.10;0.10;;;;;;;;;;5075800;28;20048;-89
2021/09/19 00:13:03;;;;;;;0.10;0.10;;;;;;;;;;5074967;28;20123;-89
2021/09/19 00:15:29;;;;;;;0.10;0.10;;;;;;;;;;5075091;28;20040;-90
2021/09/19 00:17:55;;;;;;;0.10;0.10;;;;;;;;;;5074820;28;20502;-89
2021/09/19 00:20:21;;;;;;;0.10;0.10;;;;;;;;;;5058133;28;20040;-91
2021/09/19 00:22:48;;;;;;;0.15;0.15;;;;;;;;;;5059110;28;20039;-91
2021/09/19 00:25:14;;;;;;;0.10;0.10;;;;;;;;;;5075252;28;20097;-89
2021/09/19 00:27:40;;;;;;;0.10;0.10;;;;;;;;;;5058630;28;20526;-89
2021/09/19 00:30:06;;;;;;;0.20;0.20;;;;;;;;;;5058754;28;20044;-90
2021/09/19 00:32:32;;;;;;;0.10;0.10;;;;;;;;;;5091762;28;20059;-90
2021/09/19 00:34:58;;;;;;;0.20;0.20;;;;;;;;;;5058360;28;20044;-89
2021/09/19 00:37:24;;;;;;;0.10;0.10;;;;;;;;;;5059357;28;20047;-91
2021/09/19 00:39:51;;;;;;;0.10;0.10;;;;;;;;;;5059357;28;20032;-89
2021/09/19 00:42:17;;;;;;;0.10;0.10;;;;;;;;;;5058796;28;20063;-88
2021/09/19 00:44:43;;;;;;;0.10;0.10;;;;;;;;;;5058136;28;20040;-90
2021/09/19 00:47:09;;;;;;;0.10;0.10;;;;;;;;;;5075103;28;20055;-90
2021/09/19 00:49:35;;;;;;;0.10;0.10;;;;;;;;;;5075223;28;20039;-91
2021/09/19 00:52:01;;;;;;;0.10;0.10;;;;;;;;;;5075425;28;20483;-90
2021/09/19 00:54:27;;;;;;;0.10;0.10;;;;;;;;;;5057974;28;20044;-89
2021/09/19 00:56:56;;;;;;;0.10;0.10;;;;;;;;;;5075444;28;20113;-91
2021/09/19 00:59:23;;;;;;;0.10;0.10;;;;;;;;;;5075984;28;20050;-90
2021/09/19 01:01:52;;;;;;;0.10;0.10;;;;;;;;;;5091545;28;20039;-91
2021/09/19 01:04:18;;;;;;;0.10;0.10;;;;;;;;;;5075113;28;20145;-90
2021/09/19 01:06:44;;;;;;;0.10;0.10;;;;;;;;;;5058113;28;20032;-90
2021/09/19 01:09:10;;;;;;;0.10;0.10;;;;;;;;;;5091175;28;20040;-89
2021/09/19 01:11:36;;;;;;;0.10;0.10;;;;;;;;;;5075215;28;20075;-92
2021/09/19 01:14:02;;;;;;;0.10;0.10;;;;;;;;;;5074902;28;20040;-90
2021/09/19 01:16:28;;;;;;;0.10;0.10;;;;;;;;;;5057770;28;20036;-91
2021/09/19 01:18:54;;;;;;;0.10;0.10;;;;;;;;;;5074812;28;20062;-89
2021/09/19 01:21:20;;;;;;;0.10;0.10;;;;;;;;;;5057501;28;20468;-89
2021/09/19 01:23:57;;;;;;;0.10;0.10;;;;;;;;;;5076772;28;20130;-90
2021/09/19 01:26:23;;;;;;;0.10;0.10;;;;;;;;;;5078520;28;20499;-90
2021/09/19 01:28:49;;;;;;;0.20;0.20;;;;;;;;;;5078718;28;20440;-90
2021/09/19 01:31:15;;;;;;;0.15;0.15;;;;;;;;;;5063098;28;20040;-91
2021/09/19 01:33:41;;;;;;;0.17;0.17;;;;;;;;;;5078508;28;20436;-91
2021/09/19 01:36:11;;;;;;;0.10;0.10;;;;;;;;;;5078243;28;20048;-90
2021/09/19 01:38:37;;;;;;;0.10;0.10;;;;;;;;;;5061637;28;20093;-90
2021/09/19 01:41:03;;;;;;;0.10;0.10;;;;;;;;;;5062052;28;20040;-90
2021/09/19 01:43:29;;;;;;;0.10;0.10;;;;;;;;;;5077600;28;20036;-89
2021/09/19 01:45:58;;;;;;;0.10;0.10;;;;;;;;;;5060664;28;20050;-89
2021/09/19 01:48:24;;;;;;;0.20;0.20;;;;;;;;;;5077299;28;20040;-90
2021/09/19 01:50:50;;;;;;;0.25;0.25;;;;;;;;;;5077510;28;20104;-88
2021/09/19 01:53:16;;;;;;;0.10;0.10;;;;;;;;;;5060888;28;20047;-89
2021/09/19 01:55:42;;;;;;;0.10;0.10;;;;;;;;;;5077153;28;20044;-89
2021/09/19 01:58:08;;;;;;;0.20;0.20;;;;;;;;;;5077405;28;20044;-89
2021/09/19 02:00:34;;;;;;;0.10;0.10;;;;;;;;;;5077377;28;20123;-90
2021/09/19 02:03:00;;;;;;;0.10;0.10;;;;;;;;;;5060783;28;20276;-90
2021/09/19 02:05:26;;;;;;;0.13;0.13;;;;;;;;;;5060640;28;20044;-89
2021/09/19 02:07:52;;;;;;;0.10;0.10;;;;;;;;;;5077216;28;20483;-88
2021/09/19 02:10:18;;;;;;;0.10;0.10;;;;;;;;;;5060291;28;20050;-88
2021/09/19 02:12:44;;;;;;;0.20;0.20;;;;;;;;;;5060547;28;20042;-88
2021/09/19 02:15:10;;;;;;;0.10;0.10;;;;;;;;;;5077214;28;20040;-88
2021/09/19 02:17:36;;;;;;;0.10;0.10;;;;;;;;;;5077011;28;20101;-88
2021/09/19 02:20:03;;;;;;;0.10;0.10;;;;;;;;;;5076904;28;20171;-88
2021/09/19 02:22:29;;;;;;;0.10;0.10;;;;;;;;;;5060053;28;20036;-89
2021/09/19 02:24:55;;;;;;;0.10;0.10;;;;;;;;;;5077100;28;20046;-90
2021/09/19 02:27:21;;;;;;;0.10;0.10;;;;;;;;;;5077342;28;20036;-89
2021/09/19 02:29:48;;;;;;;0.10;0.10;;;;;;;;;;5076914;28;20186;-89
2021/09/19 02:32:14;;;;;;;0.10;0.10;;;;;;;;;;5076886;28;20135;-90
2021/09/19 02:34:40;;;;;;;0.10;0.10;;;;;;;;;;5059985;28;20051;-91
2021/09/19 02:37:06;;;;;;;0.10;0.10;;;;;;;;;;5060905;28;20054;-91
2021/09/19 02:39:32;;;;;;;0.40;0.40;;;;;;;;;;5077448;28;20040;-90
2021/09/19 02:41:58;;;;;;;0.10;0.10;;;;;;;;;;5060203;28;20040;-90
2021/09/19 02:44:24;;;;;;;0.10;0.10;;;;;;;;;;5060319;28;20127;-90
2021/09/19 02:46:50;;;;;;;0.10;0.10;;;;;;;;;;5077206;28;20147;-90
2021/09/19 02:49:17;;;;;;;0.17;0.17;;;;;;;;;;5060109;28;20036;-90
2021/09/19 02:51:43;;;;;;;0.10;0.10;;;;;;;;;;5077098;28;20086;-89
2021/09/19 02:54:08;;;;;;;0.10;0.10;;;;;;;;;;5077302;28;20032;-90
2021/09/19 02:56:34;;;;;;;0.10;0.10;;;;;;;;;;5059848;28;20047;-90
2021/09/19 02:59:00;;;;;;;0.10;0.10;;;;;;;;;;5076685;28;20040;-90
2021/09/19 03:01:26;;;;;;;0.20;0.20;;;;;;;;;;5076713;28;20092;-90
2021/09/19 03:03:52;;;;;;;0.10;0.10;;;;;;;;;;5060223;28;20459;-90
2021/09/19 03:06:21;;;;;;;0.20;0.20;;;;;;;;;;5077194;28;20039;-90
2021/09/19 03:08:47;;;;;;;0.20;0.20;;;;;;;;;;5077254;28;20043;-90
2021/09/19 03:11:13;;;;;;;0.20;0.20;;;;;;;;;;5077082;28;20502;-90
2021/09/19 03:13:39;;;;;;;0.10;0.10;;;;;;;;;;5076609;28;20052;-90
2021/09/19 03:16:05;;;;;;;0.10;0.10;;;;;;;;;;5076176;28;20396;-91
2021/09/19 03:18:34;;;;;;;0.10;0.10;;;;;;;;;;5076650;28;20089;-91
2021/09/19 03:21:00;;;;;;;0.10;0.10;;;;;;;;;;5060193;28;20036;-92
2021/09/19 03:23:26;;;;;;;0.10;0.10;;;;;;;;;;5059656;28;20112;-91
2021/09/19 03:25:52;;;;;;;0.10;0.10;;;;;;;;;;5059791;28;20040;-92
2021/09/19 03:28:18;;;;;;;0.17;0.17;;;;;;;;;;5076114;28;20048;-91
2021/09/19 03:30:44;;;;;;;0.10;0.10;;;;;;;;;;5059570;28;20123;-91
2021/09/19 03:33:10;;;;;;;0.10;0.10;;;;;;;;;;5059455;28;20095;-91
2021/09/19 03:35:36;;;;;;;0.10;0.10;;;;;;;;;;5059608;28;20083;-91
2021/09/19 03:38:02;;;;;;;0.10;0.10;;;;;;;;;;5059538;28;20387;-90
2021/09/19 03:40:28;;;;;;;0.10;0.10;;;;;;;;;;5059054;28;20055;-91
2021/09/19 03:42:54;;;;;;;0.10;0.10;;;;;;;;;;5075911;28;20040;-91
2021/09/19 03:45:22;;;;;;;0.10;0.10;;;;;;;;;;5075708;28;20180;-90
2021/09/19 03:47:48;;;;;;;0.32;0.32;;;;;;;;;;5075924;28;20040;-90
2021/09/19 03:50:14;;;;;;;0.35;0.30;;;;;;;;;;5075379;28;20118;-89
2021/09/19 03:52:41;;;;;;;0.10;0.10;;;;;;;;;;5059086;28;20476;-90
2021/09/19 03:55:07;;;;;;;0.10;0.10;;;;;;;;;;5058860;28;20040;-89
2021/09/19 03:57:33;;;;;;;0.10;0.10;;;;;;;;;;5058533;28;20032;-89
2021/09/19 03:59:59;;;;;;;0.20;0.20;;;;;;;;;;5075551;28;20043;-89
2021/09/19 04:02:25;;;;;;;0.20;0.20;;;;;;;;;;5058624;28;20036;-88
2021/09/19 04:04:50;;;;;;;0.10;0.10;;;;;;;;;;5074933;28;20048;-90
2021/09/19 04:07:16;;;;;;;0.10;0.10;;;;;;;;;;5092510;28;20047;-90
2021/09/19 04:09:42;;;;;;;0.10;0.10;;;;;;;;;;5075676;28;20043;-90
2021/09/19 04:12:08;;;;;;;1.25;0.50;;;;;;;;;;5075219;28;20105;-89
2021/09/19 04:14:34;;;;;;;0.10;0.10;;;;;;;;;;5075104;28;20083;-90
2021/09/19 04:17:00;;;;;;;0.10;0.10;;;;;;;;;;5058825;28;20032;-90
2021/09/19 04:19:26;;;;;;;0.10;0.10;;;;;;;;;;5091893;28;20046;-89
2021/09/19 04:21:52;;;;;;;0.10;0.10;;;;;;;;;;5075336;28;20054;-89
2021/09/19 04:24:18;;;;;;;0.10;0.10;;;;;;;;;;5075181;28;20081;-90
2021/09/19 04:26:44;;;;;;;0.40;0.40;;;;;;;;;;5091908;28;20040;-90
2021/09/19 04:29:10;;;;;;;0.20;0.20;;;;;;;;;;5075301;28;20040;-90
2021/09/19 04:31:36;;;;;;;0.10;0.10;;;;;;;;;;5058518;28;20134;-90
2021/09/19 04:34:02;;;;;;;0.45;0.45;;;;;;;;;;5058373;28;20079;-89
2021/09/19 04:36:28;;;;;;;0.20;0.20;;;;;;;;;;5075028;28;20500;-90
2021/09/19 04:38:54;;;;;;;0.20;0.20;;;;;;;;;;5075502;28;20123;-89
2021/09/19 04:41:20;;;;;;;0.10;0.10;;;;;;;;;;5074757;28;20042;-90
2021/09/19 04:43:46;;;;;;;0.10;0.10;;;;;;;;;;5074907;28;20040;-89
2021/09/19 04:46:13;;;;;;;0.20;0.20;;;;;;;;;;5074873;28;20431;-89
2021/09/19 04:48:39;;;;;;;0.10;0.10;;;;;;;;;;5058045;28;20090;-88
2021/09/19 04:51:05;;;;;;;0.13;0.13;;;;;;;;;;5074889;28;20032;-89
2021/09/19 04:53:31;;;;;;;0.10;0.10;;;;;;;;;;5074880;28;20096;-89
2021/09/19 04:55:57;;;;;;;0.25;0.25;;;;;;;;;;5057508;28;20040;-89
2021/09/19 04:58:23;;;;;;;0.40;0.40;;;;;;;;;;5057417;28;20036;-89
2021/09/19 05:00:49;;;;;;;0.10;0.10;;;;;;;;;;5075004;28;20043;-90
2021/09/19 05:03:15;;;;;;;0.10;0.10;;;;;;;;;;5074872;28;20044;-89
2021/09/19 05:05:41;;;;;;;0.10;0.10;;;;;;;;;;5091919;28;20055;-89
2021/09/19 05:08:07;;;;;;;0.10;0.10;;;;;;;;;;5058347;28;20303;-89
2021/09/19 05:10:33;;;;;;;0.30;0.30;;;;;;;;;;5074838;28;20044;-90
2021/09/19 05:12:59;;;;;;;0.20;0.20;;;;;;;;;;5058055;28;20483;-89
2021/09/19 05:15:25;;;;;;;0.10;0.10;;;;;;;;;;5074463;28;20040;-90
2021/09/19 05:17:51;;;;;;;0.10;0.10;;;;;;;;;;5058736;28;20048;-91
2021/09/19 05:20:18;;;;;;;0.10;0.10;;;;;;;;;;5075060;28;20123;-90
2021/09/19 05:22:44;;;;;;;0.10;0.10;;;;;;;;;;5074243;28;20052;-90
2021/09/19 05:25:10;;;;;;;0.10;0.10;;;;;;;;;;5057912;28;20036;-89
2021/09/19 05:27:36;;;;;;;0.22;0.22;;;;;;;;;;5090896;28;20040;-90
2021/09/19 05:30:03;;;;;;;0.10;0.10;;;;;;;;;;5074381;28;20047;-90
2021/09/19 05:32:29;;;;;;;0.10;0.10;;;;;;;;;;5074550;28;20498;-90
2021/09/19 05:34:55;;;;;;;0.10;0.10;;;;;;;;;;5074510;28;20051;-90
2021/09/19 05:37:21;;;;;;;0.10;0.10;;;;;;;;;;5074593;28;20047;-90
2021/09/19 05:39:47;;;;;;;0.10;0.10;;;;;;;;;;5074147;28;20042;-90
2021/09/19 05:42:12;;;;;;;0.22;0.22;;;;;;;;;;5091230;28;20089;-90
2021/09/19 05:44:38;;;;;;;0.10;0.10;;;;;;;;;;5057306;28;20391;-89
2021/09/19 05:47:04;;;;;;;0.10;0.10;;;;;;;;;;5074034;28;20390;-90
2021/09/19 05:49:30;;;;;;;0.10;0.10;;;;;;;;;;5074213;28;20048;-91
2021/09/19 05:51:56;;;;;;;0.10;0.10;;;;;;;;;;5074393;28;20509;-92
2021/09/19 05:54:22;;;;;;;0.10;0.10;;;;;;;;;;5073830;28;20039;-89
2021/09/19 05:56:48;;;;;;;0.10;0.10;;;;;;;;;;5057093;28;20028;-90
2021/09/19 05:59:14;;;;;;;0.22;0.22;;;;;;;;;;5090384;28;20093;-89
2021/09/19 06:01:40;;;;;;;0.10;0.10;;;;;;;;;;5058089;28;20040;-88
2021/09/19 06:04:06;;;;;;;0.20;0.20;;;;;;;;;;5074055;28;20036;-90
2021/09/19 06:06:32;;;;;;;0.20;0.20;;;;;;;;;;5073622;28;20044;-90
2021/09/19 06:08:59;;;;;;;0.10;0.10;;;;;;;;;;5057335;28;20040;-90
2021/09/19 06:11:24;;;;;;;0.10;0.10;;;;;;;;;;5076816;28;20052;-90
2021/09/19 06:13:50;;;;;;;0.10;0.10;;;;;;;;;;5077482;28;20368;-89
2021/09/19 06:16:16;;;;;;;0.10;0.10;;;;;;;;;;5060347;28;20051;-88
2021/09/19 06:18:42;;;;;;;0.10;0.10;;;;;;;;;;5076962;28;20036;-87
2021/09/19 06:21:08;;;;;;;0.10;0.10;;;;;;;;;;5077001;28;20047;-89
2021/09/19 06:23:36;;;;;;;0.10;0.10;;;;;;;;;;5060046;28;20040;-89
2021/09/19 06:26:02;;;;;;;0.10;0.10;;;;;;;;;;5077215;28;20040;-92
2021/09/19 06:28:28;;;;;;;0.10;0.10;;;;;;;;;;5078415;28;20040;-91
2021/09/19 06:30:54;;;;;;;0.10;0.10;;;;;;;;;;5077083;28;20044;-88
2021/09/19 06:33:21;;;;;;;0.10;0.10;;;;;;;;;;5061349;28;20067;-87
2021/09/19 06:35:47;;;;;;;0.10;0.10;;;;;;;;;;5076687;28;20181;-86
2021/09/19 06:38:13;;;;;;;0.10;0.10;;;;;;;;;;5075709;28;20122;-87
2021/09/19 06:40:39;;;;;;;0.20;0.20;;;;;;;;;;5076361;28;20177;-86
2021/09/19 06:43:05;;;;;;;0.10;0.10;;;;;;;;;;5095907;28;20541;-87
2021/09/19 06:45:31;;;;;;;0.10;0.10;;;;;;;;;;5096478;28;20147;-88
2021/09/19 06:47:57;;;;;;;0.17;0.13;;;;;;;;;;5080017;28;20335;-88
2021/09/19 06:50:23;;;;;;;0.10;0.10;;;;;;;;;;5080081;28;20454;-90
2021/09/19 06:52:49;;;;;;;0.10;0.10;;;;;;;;;;5080216;28;20046;-91
2021/09/19 06:55:15;;;;;;;0.15;0.15;;;;;;;;;;5096560;28;20044;-89
2021/09/19 06:57:41;;;;;;;0.22;0.22;;;;;;;;;;5096745;28;20134;-90
2021/09/19 07:00:08;;;;;;;0.10;0.10;;;;;;;;;;5079384;28;20051;-84
2021/09/19 07:02:34;;;;;;;0.10;0.10;;;;;;;;;;5113475;28;20100;-87
2021/09/19 07:04:59;;;;;;;0.10;0.10;;;;;;;;;;5095976;28;20039;-87
2021/09/19 07:07:26;;;;;;;0.30;0.30;;;;;;;;;;5079221;28;20104;-88
2021/09/19 07:09:52;;;;;;;0.10;0.10;;;;;;;;;;5113006;28;20082;-88
2021/09/19 07:12:18;;;;;;;0.20;0.20;;;;;;;;;;5079446;28;20067;-88
2021/09/19 07:14:44;;;;;;;0.20;0.20;;;;;;;;;;5095795;28;20050;-88
2021/09/19 07:17:10;;;;;;;0.20;0.20;;;;;;;;;;5096750;28;20422;-93
2021/09/19 07:19:36;;;;;;;0.20;0.20;;;;;;;;;;5080110;28;20567;-92
2021/09/19 07:22:02;;;;;;;0.10;0.10;;;;;;;;;;5096378;28;20039;-93
2021/09/19 07:24:28;;;;;;;0.40;0.40;;;;;;;;;;5080795;28;20047;-91
2021/09/19 07:27:03;;;;;;;0.10;0.10;;;;;;;;;;5096795;28;20043;-94
2021/09/19 07:29:30;;;;;;;0.10;0.10;;;;;;;;;;5080212;28;20183;-94
2021/09/19 07:31:56;;;;;;;0.20;0.20;;;;;;;;;;5080269;28;20494;-93
2021/09/19 07:34:22;;;;;;;0.10;0.10;;;;;;;;;;5113788;28;20043;-94
2021/09/19 07:36:48;;;;;;;0.10;0.10;;;;;;;;;;5096437;28;20583;-94
2021/09/19 07:39:14;;;;;;;0.20;0.20;;;;;;;;;;5097204;28;20047;-95
2021/09/19 07:41:40;;;;;;;0.20;0.20;;;;;;;;;;5078897;28;20079;-87
2021/09/19 07:44:07;;;;;;;0.10;0.10;;;;;;;;;;5078797;28;20386;-90
2021/09/19 07:46:33;;;;;;;0.10;0.10;;;;;;;;;;5079361;28;20040;-94
2021/09/19 07:48:59;;;;;;;0.13;0.13;;;;;;;;;;5078540;28;20040;-87
2021/09/19 07:51:25;;;;;;;0.10;0.10;;;;;;;;;;5078428;28;20426;-87
2021/09/19 07:53:51;;;;;;;0.20;0.20;;;;;;;;;;5078215;28;20335;-87
2021/09/19 07:56:17;;;;;;;0.10;0.10;;;;;;;;;;5078162;28;20088;-87
2021/09/19 07:58:43;;;;;;;0.10;0.10;;;;;;;;;;5078291;28;20043;-87
2021/09/19 08:01:09;;;;;;;0.10;0.10;;;;;;;;;;5095153;28;20054;-87
2021/09/19 08:03:35;;;;;;;0.10;0.10;;;;;;;;;;5094703;28;20157;-87
2021/09/19 08:06:01;;;;;;;0.10;0.10;;;;;;;;;;5111882;28;20036;-87
2021/09/19 08:08:27;;;;;;;0.20;0.20;;;;;;;;;;5094927;28;20043;-87
2021/09/19 08:10:53;;;;;;;0.10;0.10;;;;;;;;;;5094911;28;20375;-87
2021/09/19 08:13:19;;;;;;;0.20;0.20;;;;;;;;;;5111515;28;20043;-87
2021/09/19 08:15:45;;;;;;;0.10;0.10;;;;;;;;;;5111489;28;20032;-87
2021/09/19 08:18:11;;;;;;;0.20;0.20;;;;;;;;;;5094595;28;20109;-87
2021/09/19 08:20:36;;;;;;;0.30;0.30;;;;;;;;;;5095098;28;20071;-86
2021/09/19 08:23:02;;;;;;;0.13;0.13;;;;;;;;;;5094779;28;20036;-87
2021/09/19 08:25:29;;;;;;;0.40;0.40;;;;;;;;;;5094897;28;20047;-87
2021/09/19 08:27:55;;;;;;;0.20;0.20;;;;;;;;;;5094713;28;20376;-87
2021/09/19 08:30:21;;;;;;;0.10;0.10;;;;;;;;;;5111680;28;20050;-87
2021/09/19 08:32:47;;;;;;;0.20;0.20;;;;;;;;;;5093687;28;20048;-87
2021/09/19 08:35:13;;;;;;;0.20;0.20;;;;;;;;;;5094325;28;20447;-87
2021/09/19 08:37:39;;;;;;;0.20;0.20;;;;;;;;;;5094705;28;20044;-87
2021/09/19 08:40:05;;;;;;;0.10;0.10;;;;;;;;;;5077858;28;20103;-87
2021/09/19 08:42:32;;;;;;;0.10;0.10;;;;;;;;;;5111094;28;20042;-87
2021/09/19 08:44:58;;;;;;;0.68;0.30;;;;;;;;;;5094195;28;20511;-87
2021/09/19 08:47:25;;;;;;;0.10;0.10;;;;;;;;;;5094163;28;20100;-86
2021/09/19 08:49:51;;;;;;;0.10;0.10;;;;;;;;;;5094604;28;20055;-86
2021/09/19 08:52:17;;;;;;;0.10;0.10;;;;;;;;;;5094336;28;20197;-87
2021/09/19 08:54:43;;;;;;;0.20;0.20;;;;;;;;;;5094032;28;20040;-87
2021/09/19 08:57:10;;;;;;;0.10;0.10;;;;;;;;;;5094195;28;20522;-87
2021/09/19 08:59:46;;;;;;;0.30;0.30;;;;;;;;;;5111022;28;20078;-87
2021/09/19 09:02:14;;;;;;;0.20;0.20;;;;;;;;;;5094196;28;20040;-86
2021/09/19 09:04:40;;;;;;;0.20;0.20;;;;;;;;;;5094082;28;20069;-87
2021/09/19 09:07:06;;;;;;;1.23;0.38;;;;;;;;;;5110870;28;20092;-87
2021/09/19 09:09:32;;;;;;;0.13;0.13;;;;;;;;;;5094454;28;20034;-87
2021/09/19 09:12:05;;;;;;;0.10;0.10;;;;;;;;;;5077555;28;20385;-87
2021/09/19 09:14:38;;;;;;;0.25;0.25;;;;;;;;;;5110825;28;20043;-86
2021/09/19 09:17:18;;;;;;;0.32;0.20;;;;;;;;;;5094202;28;20035;-86
2021/09/19 09:19:44;;;;;;;0.17;0.17;;;;;;;;;;5094135;28;20039;-86
2021/09/19 09:22:10;;;;;;;0.13;0.13;;;;;;;;;;5093685;28;20036;-86
2021/09/19 09:24:40;;;;;;;0.10;0.10;;;;;;;;;;5076895;28;20035;-86
2021/09/19 09:27:24;;;;;;;0.10;0.10;;;;;;;;;;5110627;28;20039;-88
2021/09/19 09:30:07;;;;;;;0.10;0.10;;;;;;;;;;5110751;28;20071;-87
2021/09/19 09:32:46;;;;;;;0.10;0.10;;;;;;;;;;5093847;28;20398;-86
2021/09/19 09:35:12;;;;;;;0.30;0.30;;;;;;;;;;5093743;28;20048;-87
2021/09/19 09:37:41;;;;;;;0.10;0.10;;;;;;;;;;5093804;28;20032;-87
2021/09/19 09:40:14;;;;;;;0.22;0.22;;;;;;;;;;5093961;28;20036;-87
2021/09/19 09:42:40;;;;;;;0.20;0.20;;;;;;;;;;5110553;28;20048;-86
2021/09/19 09:45:10;;;;;;;0.25;0.25;;;;;;;;;;5095947;28;20051;-86
2021/09/19 09:47:39;;;;;;;0.10;0.10;;;;;;;;;;5114487;28;20048;-87
2021/09/19 09:50:05;;;;;;;0.20;0.20;;;;;;;;;;5081210;28;20336;-86
2021/09/19 09:52:32;;;;;;;0.10;0.10;;;;;;;;;;5097598;28;20501;-86
2021/09/19 09:55:08;;;;;;;0.25;0.25;;;;;;;;;;5097261;28;20044;-86
2021/09/19 09:57:34;;;;;;;0.10;0.10;;;;;;;;;;5097388;28;20397;-86
2021/09/19 10:00:20;;;;;;;0.10;0.10;;;;;;;;;;5114241;28;20123;-86
2021/09/19 10:02:50;;;;;;;0.60;0.32;;;;;;;;;;5114323;28;20062;-86
2021/09/19 10:05:16;;;;;;;0.20;0.20;;;;;;;;;;5097046;28;20399;-86
2021/09/19 10:07:42;;;;;;;0.13;0.13;;;;;;;;;;5097167;28;20039;-87
2021/09/19 10:10:09;;;;;;;0.10;0.10;;;;;;;;;;5080284;28;20035;-86
2021/09/19 10:12:35;;;;;;;0.10;0.10;;;;;;;;;;5097728;28;20035;-86
2021/09/19 10:15:02;;;;;;;0.30;0.30;;;;;;;;;;5096901;28;20044;-87
2021/09/19 10:17:28;;;;;;;0.20;0.20;;;;;;;;;;5097158;28;20122;-86
2021/09/19 10:19:54;;;;;;;0.22;0.22;;;;;;;;;;5096835;28;20051;-86
2021/09/19 10:22:33;;;;;;;0.20;0.20;;;;;;;;;;5096763;28;20043;-86
2021/09/19 10:24:59;;;;;;;0.35;0.35;;;;;;;;;;5079857;28;20039;-87
2021/09/19 10:27:34;;;;;;;0.10;0.10;;;;;;;;;;5096982;28;20111;-86
2021/09/19 10:30:08;;;;;;;0.10;0.10;;;;;;;;;;5079744;28;20126;-86
2021/09/19 10:32:34;;;;;;;0.15;0.15;;;;;;;;;;5079820;28;20515;-87
2021/09/19 10:35:00;;;;;;;0.10;0.10;;;;;;;;;;5096401;28;20052;-87
2021/09/19 10:37:45;;;;;;;0.20;0.20;;;;;;;;;;5096617;28;20136;-86
2021/09/19 10:40:11;;;;;;;0.20;0.20;;;;;;;;;;5096670;28;20459;-86
2021/09/19 10:42:39;;;;;;;0.20;0.20;;;;;;;;;;5096921;28;20120;-86
2021/09/19 10:45:13;;;;;;;0.47;0.47;;;;;;;;;;5079846;28;20039;-86
2021/09/19 10:47:42;;;;;;;0.20;0.20;;;;;;;;;;5079752;28;20499;-86
2021/09/19 10:50:11;;;;;;;0.20;0.20;;;;;;;;;;5113226;28;20040;-87
2021/09/19 10:52:40;;;;;;;0.20;0.20;;;;;;;;;;5113350;28;20403;-87
2021/09/19 10:55:12;;;;;;;0.30;0.30;;;;;;;;;;5079602;28;20040;-87
2021/09/19 10:57:38;;;;;;;0.10;0.10;;;;;;;;;;5078777;28;20101;-87
2021/09/19 11:00:17;;;;;;;0.32;0.32;;;;;;;;;;5096046;28;20048;-86
2021/09/19 11:02:43;;;;;;;0.15;0.15;;;;;;;;;;5095904;28;20042;-86
2021/09/19 11:05:25;;;;;;;0.10;0.10;;;;;;;;;;5095956;28;20217;-86
2021/09/19 11:07:52;;;;;;;;;;;;;;;;;;5113537;28;20127;-86
2021/09/19 11:10:18;;;;;;;0.10;0.10;;;;;;;;;;5095879;28;20362;-86
2021/09/19 11:12:50;;;;;;;0.52;0.32;;;;;;;;;;5078970;28;20035;-86
2021/09/19 11:15:22;;;;;;;0.25;0.25;;;;;;;;;;5095628;28;20040;-86
2021/09/19 11:17:49;;;;;;;0.20;0.20;;;;;;;;;;5079268;28;20031;-86
2021/09/19 11:20:20;;;;;;;0.20;0.20;;;;;;;;;;5079401;28;20035;-86
2021/09/19 11:22:47;;;;;;;0.30;0.30;;;;;;;;;;5112686;28;20050;-86
2021/09/19 11:25:13;;;;;;;0.10;0.10;;;;;;;;;;5095739;28;20047;-85
2021/09/19 11:27:41;;;;;;;0.20;0.20;;;;;;;;;;5112394;28;20061;-86
2021/09/19 11:30:07;;;;;;;0.20;0.20;;;;;;;;;;5095724;28;20126;-86
2021/09/19 11:32:33;;;;;;;0.10;0.10;;;;;;;;;;5095520;28;20048;-86
2021/09/19 11:35:00;;;;;;;0.10;0.10;;;;;;;;;;5112123;28;20047;-87
2021/09/19 11:37:26;;;;;;;0.20;0.20;;;;;;;;;;5078646;28;20078;-86
2021/09/19 11:39:52;;;;;;;0.10;0.10;;;;;;;;;;5112293;28;20035;-87
2021/09/19 11:42:18;;;;;;;0.10;0.10;;;;;;;;;;5095418;28;20058;-86
2021/09/19 11:44:45;;;;;;;0.10;0.10;;;;;;;;;;5095235;28;20039;-86
2021/09/19 11:47:12;;;;;;;0.10;0.10;;;;;;;;;;5095356;28;20031;-86
2021/09/19 11:49:39;;;;;;;0.20;0.20;;;;;;;;;;5095656;28;20055;-86
2021/09/19 11:52:05;;;;;;;0.10;0.10;;;;;;;;;;5078306;28;20035;-86
2021/09/19 11:54:31;;;;;;;0.20;0.20;;;;;;;;;;5095287;28;20139;-86
2021/09/19 11:56:58;;;;;;;0.20;0.20;;;;;;;;;;5094904;28;20039;-86
2021/09/19 11:59:24;;;;;;;0.10;0.10;;;;;;;;;;5095602;28;20393;-86
2021/09/19 12:01:50;;;;;;;0.10;0.10;;;;;;;;;;5111827;28;20035;-86
2021/09/19 12:04:16;;;;;;;0.10;0.10;;;;;;;;;;5094838;28;20564;-87
2021/09/19 12:06:42;;;;;;;0.20;0.20;;;;;;;;;;5111862;28;20366;-86
2021/09/19 12:09:09;;;;;;;0.10;0.10;;;;;;;;;;5095018;28;20103;-87
2021/09/19 12:11:39;;;;;;;0.10;0.10;;;;;;;;;;5094797;28;20047;-86
2021/09/19 12:14:10;;;;;;;0.20;0.20;;;;;;;;;;5078024;28;20058;-87
2021/09/19 12:16:36;;;;;;;0.20;0.20;;;;;;;;;;5077724;28;20383;-86
2021/09/19 12:19:02;;;;;;;0.10;0.10;;;;;;;;;;5111639;28;20137;-86
2021/09/19 12:21:28;;;;;;;0.10;0.10;;;;;;;;;;5094568;28;20039;-86
2021/09/19 12:23:55;;;;;;;0.28;0.28;;;;;;;;;;5094580;28;20035;-86
2021/09/19 12:26:22;;;;;;;0.77;0.77;;;;;;;;;;5111240;28;20448;-86
2021/09/19 12:28:49;;;;;;;0.10;0.10;;;;;;;;;;5094799;28;20054;-86
2021/09/19 12:31:32;;;;;;;0.22;0.22;;;;;;;;;;5094874;28;20592;-85
2021/09/19 12:33:58;;;;;;;0.20;0.20;;;;;;;;;;5077583;28;20055;-86
2021/09/19 12:36:28;;;;;;;0.10;0.10;;;;;;;;;;5094316;28;20054;-86
2021/09/19 12:38:54;;;;;;;0.75;0.75;;;;;;;;;;5094207;28;20044;-86
2021/09/19 12:41:20;;;;;;;0.20;0.20;;;;;;;;;;5077528;28;20055;-86
2021/09/19 12:43:46;;;;;;;0.22;0.22;;;;;;;;;;5093941;28;20039;-86
2021/09/19 12:46:16;;;;;;;0.17;0.17;;;;;;;;;;5094268;28;20039;-86
2021/09/19 12:48:42;;;;;;;0.10;0.10;;;;;;;;;;5077382;28;20075;-87
2021/09/19 12:51:10;;;;;;;0.10;0.10;;;;;;;;;;5094242;28;20135;-86
2021/09/19 12:53:36;;;;;;;0.20;0.20;;;;;;;;;;5077373;28;20072;-86
2021/09/19 12:56:02;;;;;;;0.10;0.10;;;;;;;;;;5077025;28;20122;-86
2021/09/19 12:58:29;;;;;;;0.10;0.10;;;;;;;;;;5094059;28;20035;-86
2021/09/19 13:00:55;;;;;;;0.10;0.10;;;;;;;;;;5093706;28;20036;-87
2021/09/19 13:03:25;;;;;;;0.10;0.10;;;;;;;;;;5093974;28;20055;-86
2021/09/19 13:05:51;;;;;;;0.30;0.20;;;;;;;;;;5110766;28;20431;-86
2021/09/19 13:08:17;;;;;;;0.45;0.45;;;;;;;;;;5094159;28;20180;-87
2021/09/19 13:10:43;;;;;;;0.10;0.10;;;;;;;;;;5094245;28;20088;-86
2021/09/19 13:13:09;;;;;;;0.35;0.35;;;;;;;;;;5093911;28;20048;-85
2021/09/19 13:15:35;;;;;;;0.10;0.10;;;;;;;;;;5091665;28;20050;-85
2021/09/19 13:18:01;;;;;;;0.10;0.10;;;;;;;;;;5093695;28;20085;-86
2021/09/19 13:20:27;;;;;;;0.10;0.10;;;;;;;;;;5097333;28;20039;-88
2021/09/19 13:22:53;;;;;;;0.10;0.10;;;;;;;;;;5098540;28;20032;-88
2021/09/19 13:25:20;;;;;;;0.10;0.10;;;;;;;;;;5098302;28;20039;-87
2021/09/19 13:27:46;;;;;;;0.10;0.10;;;;;;;;;;5081930;28;20111;-89
2021/09/19 13:30:12;;;;;;;0.10;0.10;;;;;;;;;;5081947;28;20039;-89
2021/09/19 13:32:38;;;;;;;0.30;0.20;;;;;;;;;;5099497;28;20134;-89
2021/09/19 13:35:05;;;;;;;0.40;0.40;;;;;;;;;;5110575;28;20048;-90
2021/09/19 13:37:31;;;;;;;0.10;0.10;;;;;;;;;;5098009;28;20062;-91
2021/09/19 13:39:58;;;;;;;0.10;0.10;;;;;;;;;;5116753;28;20031;-90
2021/09/19 13:42:24;;;;;;;0.10;0.10;;;;;;;;;;5100417;28;20054;-89
2021/09/19 13:44:50;;;;;;;0.20;0.20;;;;;;;;;;5101904;28;20103;-91
2021/09/19 13:47:16;;;;;;;0.10;0.10;;;;;;;;;;5121001;27;20040;-90
2021/09/19 13:49:42;;;;;;;0.20;0.20;;;;;;;;;;5122776;27;20032;-90
2021/09/19 13:52:08;;;;;;;0.10;0.10;;;;;;;;;;5121963;28;20055;-90
2021/09/19 13:54:34;;;;;;;0.20;0.20;;;;;;;;;;5121894;28;20078;-91
2021/09/19 13:57:02;;;;;;;0.20;0.20;;;;;;;;;;5103457;28;20044;-90
2021/09/19 13:59:28;;;;;;;0.22;0.22;;;;;;;;;;5084688;28;20040;-91
2021/09/19 14:01:54;;;;;;;0.20;0.20;;;;;;;;;;5081358;28;20356;-92
2021/09/19 14:04:21;;;;;;;0.20;0.20;;;;;;;;;;5098030;28;20040;-91
2021/09/19 14:06:47;;;;;;;0.10;0.10;;;;;;;;;;5081057;28;20065;-89
2021/09/19 14:09:13;;;;;;;0.20;0.20;;;;;;;;;;5115183;28;20036;-91
2021/09/19 14:11:39;;;;;;;0.22;0.22;;;;;;;;;;5097776;28;20478;-91
2021/09/19 14:14:08;;;;;;;0.30;0.30;;;;;;;;;;5097801;28;20173;-90
2021/09/19 14:16:34;;;;;;;0.20;0.20;;;;;;;;;;5097678;28;20061;-90
2021/09/19 14:19:00;;;;;;;0.25;0.25;;;;;;;;;;5114357;28;20040;-91
2021/09/19 14:21:28;;;;;;;0.20;0.20;;;;;;;;;;5081099;28;20122;-95
2021/09/19 14:23:54;;;;;;;0.20;0.20;;;;;;;;;;5081679;28;20376;-91
2021/09/19 14:26:20;;;;;;;0.10;0.10;;;;;;;;;;5097739;28;20050;-90
2021/09/19 14:28:46;;;;;;;3.20;0.30;;;;;;;;;;5080753;28;20534;-91
2021/09/19 14:31:12;;;;;;;0.10;0.10;;;;;;;;;;5079352;28;20059;-91
2021/09/19 14:33:38;;;;;;;0.10;0.10;;;;;;;;;;5114117;28;20475;-92
2021/09/19 14:36:04;;;;;;;0.10;0.10;;;;;;;;;;5097318;28;20082;-91
2021/09/19 14:38:30;;;;;;;0.35;0.35;;;;;;;;;;5080681;28;20039;-91
2021/09/19 14:40:56;;;;;;;0.10;0.10;;;;;;;;;;5080617;28;20054;-90